Impacts TAF Board
For situational awareness. Not to be used for flight planning purposes.
IDs:

KPEQ - Pecos Muni, TX, US

Issued at 1720 UTC 02 Aug 2021
Updated at 2051 UTC 02 Aug 2021
Potential Impact None Slight Moderate High
Time2030Z 02/21Z 02/22Z 02/23Z 03/00Z 03/01Z 03/02Z 03/03Z 03/04Z 03/05Z 03/06Z 03/07Z 03/08Z 03/09Z>>
Type OBS PRVL PRVL PRVL PRVL PRVL PRVL PRVL PRVL PRVL PRVL PRVL PRVL PRVL
VIS 10 >6 >6 >6 >6 >6 >6 >6 >6 >6 >6 >6 >6 >6
CIG 29 35 35 35 35 35 35 -- -- -- -- -- -- --
Cover OVC OVC OVC OVC OVC OVC OVC SCT SCT SCT SCT SCT SCT SCT
FltCat MVFR VFR VFR VFR VFR VFR VFR VFR VFR VFR VFR VFR VFR VFR
WX -- -- -- -- -- -- -- -- -- -- -- -- -- --
WDir 120 10 10 10 10 10 10 90 90 90 90 90 90 90
WSpd 8 10 10 10 10 10 10 10 10 10 10 10 10 10
WGst -- -- -- -- -- -- -- -- -- -- -- -- -- --
Raw TAF
KPEQ 021720Z 0218/0318 01010KT P6SM SCT020 OVC035
  FM030300 09010KT P6SM SCT100


Raw METAR
KPEQ 022030Z AUTO 12008KT 10SM SCT016 BKN029 OVC036 24/21 A3018 RMK AO2 T02400206 PWINO
KPEQ 022010Z AUTO 12006KT 10SM SCT014 OVC031 24/21 A3019 RMK AO2 LTG DSNT S T02410206 PWINO
KPEQ 021950Z AUTO 20003KT 10SM SCT014 SCT033 BKN040 24/20 A3019 RMK AO2 LTG DSNT S T02410204 PWINO
KPEQ 021930Z AUTO 00000KT 10SM SCT032 SCT042 BKN080 23/20 A3020 RMK AO2 LTG DSNT SW T02320204 PWINO
KPEQ 021910Z AUTO 00000KT 10SM SCT031 BKN050 OVC080 22/21 A3021 RMK AO2 LTG DSNT SW T02240205 PWINO
KPEQ 021850Z AUTO 11004KT 10SM SCT015 BKN034 OVC070 22/20 A3022 RMK AO2 LTG DSNT S P0005 T02200204 PWINO
KPEQ 021830Z AUTO 08003KT 10SM SCT055 SCT065 BKN080 22/20 A3022 RMK AO2 LTG DSNT S T02240201 PWINO
KPEQ 021810Z AUTO 04004KT 10SM SCT080 SCT090 22/20 A3023 RMK AO2 LTG DSNT NW T02180199 PWINO
KPEQ 021750Z AUTO 36003KT 10SM SCT045 BKN080 OVC110 21/20 A3023 RMK AO2 LTG DSNT NW P0025 T02110201 PWINO

METAR Board
Radar Display
Forecast Discussion
For situational awareness. Not to be used for flight planning purposes.